Time;durP1;ratioP1;P1;durP2;ratioP2;P2;SDS_P1;SDS_P2;PMS_P1;PMS_P2;Temp;Humidity;BMP_temperature;BMP_pressure;BME280_temperature;BME280_humidity;BME280_pressure;Samples;Min_cycle;Max_cycle;Signal;HPM_P1;HPM_P2
2022/09/23 00:01:24;;;;;;;3.97;1.15;;;;;;;25.03;29.63;101264.09;5022206;28;20411;-70
2022/09/23 00:03:53;;;;;;;3.10;1.13;;;;;;;25.09;29.31;101258.69;5021481;28;20045;-70
2022/09/23 00:06:23;;;;;;;2.92;1.15;;;;;;;25.07;29.01;101256.06;5023588;28;20091;-69
2022/09/23 00:08:52;;;;;;;3.20;1.13;;;;;;;25.09;28.51;101263.97;5028976;28;20077;-69
2022/09/23 00:11:24;;;;;;;2.33;0.90;;;;;;;25.04;27.87;101264.09;5022910;28;20452;-70
2022/09/23 00:13:55;;;;;;;2.22;1.08;;;;;;;25.03;28.78;101264.97;5023308;28;20487;-70
2022/09/23 00:16:28;;;;;;;1.60;1.05;;;;;;;24.99;28.88;101262.44;5022129;28;20042;-69
2022/09/23 00:18:57;;;;;;;3.38;1.10;;;;;;;24.97;29.46;101266.88;5024531;28;20053;-67
2022/09/23 00:21:26;;;;;;;1.73;1.30;;;;;;;24.90;28.58;101267.94;5021762;28;20571;-68
2022/09/23 00:23:55;;;;;;;2.47;1.25;;;;;;;24.86;29.71;101272.44;5022209;28;20049;-68
2022/09/23 00:26:26;;;;;;;4.50;1.42;;;;;;;24.78;29.67;101272.59;5021682;28;20041;-68
2022/09/23 00:28:55;;;;;;;2.73;1.20;;;;;;;24.74;30.18;101272.69;5025272;28;20491;-68
2022/09/23 00:31:26;;;;;;;2.15;1.10;;;;;;;24.68;28.42;101271.03;5028058;28;20045;-69
2022/09/23 00:33:55;;;;;;;2.03;1.08;;;;;;;24.62;29.24;101279.09;5026162;28;20266;-69
2022/09/23 00:36:25;;;;;;;3.90;1.05;;;;;;;24.55;28.40;101266.91;5034338;28;20052;-68
2022/09/23 00:38:54;;;;;;;1.42;0.98;;;;;;;24.51;28.59;101263.47;5030790;28;20046;-67
2022/09/23 00:41:24;;;;;;;1.90;1.13;;;;;;;24.43;28.13;101255.63;5027529;28;20042;-67
2022/09/23 00:43:54;;;;;;;1.95;1.23;;;;;;;24.34;28.44;101258.47;5030964;28;20068;-67
2022/09/23 00:46:27;;;;;;;2.33;1.00;;;;;;;24.28;28.54;101263.91;5027690;28;20053;-68
2022/09/23 00:49:00;;;;;;;2.63;1.35;;;;;;;24.22;29.86;101256.94;5027936;27;20585;-68
2022/09/23 00:51:35;;;;;;;2.63;1.02;;;;;;;24.18;30.19;101262.31;5010335;28;20103;-68
2022/09/23 00:54:05;;;;;;;2.33;1.30;;;;;;;24.13;30.29;101259.75;5007383;28;20460;-68
2022/09/23 00:56:37;;;;;;;2.00;1.13;;;;;;;24.07;29.49;101265.16;4997470;28;20146;-66
2022/09/23 00:59:08;;;;;;;5.22;1.38;;;;;;;23.98;29.05;101258.28;4997798;28;20084;-66
2022/09/23 01:01:37;;;;;;;3.08;0.80;;;;;;;23.85;29.77;101264.69;4995042;28;20082;-66
2022/09/23 01:04:08;;;;;;;1.63;1.00;;;;;;;23.77;30.22;101263.91;5007585;28;20073;-67
2022/09/23 01:06:37;;;;;;;1.15;0.98;;;;;;;23.71;30.52;101261.34;5004841;28;20056;-66
2022/09/23 01:09:06;;;;;;;3.95;1.73;;;;;;;23.62;30.98;101257.97;4998702;28;20139;-66
2022/09/23 01:11:50;;;;;;;3.33;1.58;;;;;;;23.56;31.79;101260.69;5008574;28;20488;-66
2022/09/23 01:14:37;;;;;;;2.38;1.30;;;;;;;23.47;32.74;101263.50;5001805;28;20065;-66
2022/09/23 01:17:11;;;;;;;3.88;1.45;;;;;;;23.44;33.78;101270.63;5004056;28;20042;-67
2022/09/23 01:20:06;;;;;;;3.40;1.10;;;;;;;23.33;34.29;101265.50;5002057;28;20065;-67
2022/09/23 01:22:41;;;;;;;1.95;1.20;;;;;;;23.26;34.46;101279.69;4995562;28;20050;-66
2022/09/23 01:25:27;;;;;;;3.15;1.50;;;;;;;23.14;34.38;101273.69;5001211;28;20100;-68
2022/09/23 01:28:16;;;;;;;2.17;1.55;;;;;;;23.07;34.82;101287.00;5004214;28;20058;-66
2022/09/23 01:30:53;;;;;;;2.20;1.23;;;;;;;23.00;34.60;101288.84;5008108;28;20487;-67
2022/09/23 01:33:25;;;;;;;2.17;1.40;;;;;;;22.92;34.97;101294.16;5003547;28;20717;-66
2022/09/23 01:36:06;;;;;;;2.17;1.33;;;;;;;22.82;35.27;101287.28;5009889;28;20065;-67
2022/09/23 01:38:42;;;;;;;1.30;1.20;;;;;;;22.73;35.61;101293.53;4994456;28;20065;-66
2022/09/23 01:41:26;;;;;;;3.13;1.30;;;;;;;22.61;34.87;101293.69;4996975;28;20529;-66
2022/09/23 01:44:03;;;;;;;1.70;1.10;;;;;;;22.51;34.95;101289.41;5004412;28;20104;-66
2022/09/23 01:46:37;;;;;;;2.55;1.27;;;;;;;22.42;35.58;101295.66;5002442;28;20074;-67
2022/09/23 01:49:12;;;;;;;3.78;1.33;;;;;;;22.34;35.62;101302.78;5012711;28;20050;-67
2022/09/23 01:51:46;;;;;;;4.00;1.40;;;;;;;22.26;35.25;101294.94;5014423;28;20061;-66
2022/09/23 01:54:20;;;;;;;3.60;1.40;;;;;;;22.19;35.67;101295.84;5003524;28;20407;-67
2022/09/23 01:56:53;;;;;;;3.63;1.65;;;;;;;22.12;36.26;101296.81;5012432;28;20081;-66
2022/09/23 01:59:28;;;;;;;4.68;2.13;;;;;;;22.06;37.08;101302.13;5006025;28;20043;-66
2022/09/23 02:02:04;;;;;;;4.53;1.50;;;;;;;21.97;37.20;101305.75;5010079;28;20531;-67
2022/09/23 02:04:38;;;;;;;2.67;1.58;;;;;;;21.88;37.16;101309.34;5002661;28;20056;-66
2022/09/23 02:07:13;;;;;;;2.75;1.60;;;;;;;21.81;37.37;101312.03;5001086;28;20137;-66
2022/09/23 02:09:47;;;;;;;2.22;1.25;;;;;;;21.73;37.79;101314.72;5003495;28;20050;-66
2022/09/23 02:12:19;;;;;;;2.08;1.50;;;;;;;21.63;37.85;101307.78;5001618;28;20056;-67
2022/09/23 02:14:53;;;;;;;2.03;1.17;;;;;;;21.52;38.37;101311.34;5005583;28;20054;-69
2022/09/23 02:17:31;;;;;;;2.55;1.58;;;;;;;21.43;38.57;101316.69;5000788;28;20046;-68
2022/09/23 02:20:03;;;;;;;3.17;1.77;;;;;;;21.35;38.91;101318.47;5008667;28;20080;-68
2022/09/23 02:22:40;;;;;;;3.72;1.52;;;;;;;21.26;39.24;101323.78;5004226;28;20062;-66
2022/09/23 02:25:11;;;;;;;5.60;2.10;;;;;;;21.08;39.74;101316.84;5001435;28;20046;-67
2022/09/23 02:27:48;;;;;;;3.22;1.75;;;;;;;21.09;39.73;101322.09;4997657;28;20054;-67
2022/09/23 02:30:20;;;;;;;2.50;1.80;;;;;;;21.03;40.17;101324.78;5002127;28;20045;-68
2022/09/23 02:32:55;;;;;;;4.00;2.30;;;;;;;20.95;40.34;101329.19;4999775;28;20510;-67
2022/09/23 02:35:31;;;;;;;3.20;2.10;;;;;;;20.86;40.91;101329.22;4999691;28;20700;-67
2022/09/23 02:38:14;;;;;;;4.63;2.25;;;;;;;20.77;40.89;101326.63;5005083;28;20050;-67
2022/09/23 02:40:47;;;;;;;;;;;;;;;20.70;41.64;101329.25;5006632;28;20050;-67
2022/09/23 02:43:21;;;;;;;8.13;2.25;;;;;;;20.62;42.50;101320.53;5001221;28;19926;-68
2022/09/23 02:45:50;;;;;;;5.20;2.00;;;;;;;20.51;42.28;101331.03;4998776;28;20050;-69
2022/09/23 02:48:24;;;;;;;3.97;1.73;;;;;;;20.42;42.73;101343.34;4997783;28;20454;-69
2022/09/23 02:50:53;;;;;;;2.88;1.55;;;;;;;20.34;43.30;101345.09;5010591;28;20073;-67
2022/09/23 02:53:24;;;;;;;1.98;1.55;;;;;;;20.23;43.38;101339.88;5023080;28;20546;-67
2022/09/23 02:55:53;;;;;;;3.70;1.90;;;;;;;20.14;43.43;101351.25;5022832;28;20087;-66
2022/09/23 02:58:21;;;;;;;7.97;1.90;;;;;;;20.05;43.64;101344.25;5030326;28;20046;-67
2022/09/23 03:01:03;;;;;;;5.32;1.77;;;;;;;19.98;44.03;101342.50;5018957;28;20535;-66
2022/09/23 03:03:45;;;;;;;4.43;2.05;;;;;;;19.92;44.23;101346.88;5029951;28;20521;-66
2022/09/23 03:06:25;;;;;;;4.22;2.00;;;;;;;19.85;44.68;101352.13;5026196;28;20099;-69
2022/09/23 03:09:01;;;;;;;2.75;1.50;;;;;;;19.78;44.75;101347.75;5025674;28;20068;-68
2022/09/23 03:11:30;;;;;;;5.30;1.67;;;;;;;19.71;44.98;101353.84;5027123;28;20474;-69
2022/09/23 03:14:16;;;;;;;2.05;1.70;;;;;;;19.64;45.64;101362.56;5027107;28;20045;-70
2022/09/23 03:16:51;;;;;;;3.55;2.13;;;;;;;19.54;45.85;101359.06;5025491;28;20053;-69
2022/09/23 03:19:28;;;;;;;5.88;2.65;;;;;;;19.45;46.06;101362.53;5021610;28;20487;-69
2022/09/23 03:22:04;;;;;;;5.40;1.98;;;;;;;19.38;46.33;101365.16;5026020;28;20049;-70
2022/09/23 03:24:35;;;;;;;2.50;1.67;;;;;;;19.28;46.66;101369.47;5027131;28;20076;-69
2022/09/23 03:27:06;;;;;;;4.80;1.88;;;;;;;19.21;46.75;101362.44;5027499;28;20644;-69
2022/09/23 03:29:36;;;;;;;13.85;2.10;;;;;;;19.13;46.74;101372.06;5023282;28;20057;-70
2022/09/23 03:32:06;;;;;;;3.63;2.00;;;;;;;19.04;46.79;101376.38;5021728;28;20049;-70
2022/09/23 03:34:39;;;;;;;7.13;1.80;;;;;;;18.96;46.96;101379.81;5027917;28;20522;-70
2022/09/23 03:37:14;;;;;;;5.70;1.92;;;;;;;18.86;47.46;101378.03;5029687;28;20450;-70
2022/09/23 03:39:45;;;;;;;6.43;1.83;;;;;;;18.77;47.12;101376.25;5027723;28;20049;-71
2022/09/23 03:42:18;;;;;;;2.60;1.50;;;;;;;18.70;47.57;101377.03;5023442;28;20049;-70
2022/09/23 03:44:49;;;;;;;7.57;1.55;;;;;;;18.64;47.91;101385.72;5021376;28;20046;-71
2022/09/23 03:47:18;;;;;;;5.10;1.42;;;;;;;18.55;47.96;101383.91;5019572;28;20073;-69
2022/09/23 03:49:50;;;;;;;9.25;1.73;;;;;;;18.49;49.06;101390.88;5014645;28;20503;-70
2022/09/23 03:52:20;;;;;;;4.05;1.50;;;;;;;18.39;50.10;101392.53;5019450;28;20053;-70
2022/09/23 03:54:50;;;;;;;2.08;1.17;;;;;;;18.28;49.93;101391.56;5023852;28;20072;-69
2022/09/23 03:57:19;;;;;;;3.33;1.38;;;;;;;18.20;50.59;101400.25;5017463;28;20137;-69
2022/09/23 03:59:47;;;;;;;3.90;1.27;;;;;;;18.08;51.25;101405.41;5016753;28;20089;-69
2022/09/23 04:02:16;;;;;;;4.15;1.50;;;;;;;17.95;51.01;101407.00;5024028;28;20045;-70
2022/09/23 04:04:45;;;;;;;3.90;1.50;;;;;;;17.85;50.77;101418.28;5020033;28;20648;-71
2022/09/23 04:07:15;;;;;;;4.43;1.20;;;;;;;17.80;51.79;101409.47;5027923;28;20053;-69
2022/09/23 04:09:44;;;;;;;1.30;1.10;;;;;;;17.73;52.38;101418.09;5021732;28;20056;-71
2022/09/23 04:12:15;;;;;;;4.40;1.30;;;;;;;17.70;52.33;101421.56;5024285;28;20053;-71
2022/09/23 04:14:44;;;;;;;4.68;1.50;;;;;;;17.69;51.53;101409.34;5021463;28;20055;-71
2022/09/23 04:17:13;;;;;;;6.32;1.75;;;;;;;17.63;51.67;101422.34;5022323;28;20095;-69
2022/09/23 04:19:42;;;;;;;3.50;1.40;;;;;;;17.58;52.31;101408.34;5026872;28;20049;-69
2022/09/23 04:22:11;;;;;;;4.00;1.55;;;;;;;17.49;52.09;101409.13;5016394;28;20053;-69
2022/09/23 04:24:41;;;;;;;4.57;1.42;;;;;;;17.43;52.42;101419.53;5025071;28;20803;-69
2022/09/23 04:27:10;;;;;;;3.75;1.33;;;;;;;17.42;52.18;101424.75;5018477;28;20561;-69
2022/09/23 04:29:38;;;;;;;3.65;1.58;;;;;;;17.42;53.15;101420.38;5029314;28;20690;-70
2022/09/23 04:32:07;;;;;;;3.63;1.40;;;;;;;17.42;52.96;101422.13;5023984;28;20056;-70
2022/09/23 04:34:36;;;;;;;5.10;1.88;;;;;;;17.40;52.60;101419.47;5020415;28;20100;-69
2022/09/23 04:37:04;;;;;;;4.35;1.80;;;;;;;17.33;53.17;101417.66;5023241;28;20525;-70
2022/09/23 04:39:33;;;;;;;2.83;1.25;;;;;;;17.28;53.49;101427.19;5017517;28;20053;-69
2022/09/23 04:42:04;;;;;;;2.97;1.50;;;;;;;17.21;54.01;101426.22;5020224;28;20061;-69
2022/09/23 04:44:33;;;;;;;2.60;1.30;;;;;;;17.18;54.58;101431.44;5026644;28;20132;-69
2022/09/23 04:47:03;;;;;;;5.30;1.63;;;;;;;17.16;55.06;101430.53;5022148;28;20376;-69
2022/09/23 04:49:32;;;;;;;3.58;1.27;;;;;;;17.13;55.56;101430.47;5027808;28;20120;-70
2022/09/23 04:52:01;;;;;;;2.83;1.77;;;;;;;17.11;55.82;101437.41;5032514;28;20051;-70
2022/09/23 04:54:30;;;;;;;3.13;1.80;;;;;;;17.07;55.74;101428.66;5026019;28;20450;-69
2022/09/23 04:56:58;;;;;;;3.38;1.17;;;;;;;17.04;55.94;101427.72;5022253;28;20050;-68
2022/09/23 04:59:29;;;;;;;2.13;1.27;;;;;;;16.99;56.28;101429.41;5024082;28;20046;-69
2022/09/23 05:01:57;;;;;;;3.63;1.23;;;;;;;16.90;56.42;101431.03;5026136;28;20045;-69
2022/09/23 05:04:26;;;;;;;1.85;1.50;;;;;;;16.83;57.33;101431.78;5023749;28;20045;-69
2022/09/23 05:06:54;;;;;;;7.97;2.25;;;;;;;16.68;57.14;101435.03;5024191;28;20046;-67
2022/09/23 05:09:23;;;;;;;5.97;2.10;;;;;;;16.53;58.08;101435.66;5031511;28;20099;-68
2022/09/23 05:11:51;;;;;;;4.20;1.92;;;;;;;16.48;57.80;101432.09;5030680;28;20705;-68
2022/09/23 05:14:20;;;;;;;5.35;1.92;;;;;;;16.47;58.17;101432.97;5020567;28;20050;-68
2022/09/23 05:16:51;;;;;;;2.53;1.52;;;;;;;16.42;57.82;101429.38;5018699;28;20054;-68
2022/09/23 05:19:19;;;;;;;5.38;1.42;;;;;;;16.38;57.71;101432.81;5023610;28;20068;-67
2022/09/23 05:21:48;;;;;;;1.95;1.25;;;;;;;16.26;58.41;101427.38;5028550;28;20052;-67
2022/09/23 05:24:17;;;;;;;5.65;1.40;;;;;;;16.13;60.29;101442.84;5026173;28;20140;-68
2022/09/23 05:26:46;;;;;;;4.55;1.17;;;;;;;16.06;59.79;101437.50;5028146;28;20057;-68
2022/09/23 05:29:16;;;;;;;2.90;1.38;;;;;;;16.04;60.76;101437.47;5028567;28;20128;-68
2022/09/23 05:31:44;;;;;;;3.70;1.33;;;;;;;16.02;60.34;101440.91;5023186;28;20084;-69
2022/09/23 05:34:15;;;;;;;3.67;1.38;;;;;;;16.00;60.05;101446.09;5023762;28;20472;-68
2022/09/23 05:36:43;;;;;;;3.55;1.50;;;;;;;15.97;60.92;101438.22;5020628;28;20652;-67
2022/09/23 05:39:12;;;;;;;2.22;1.75;;;;;;;15.96;60.79;101441.66;5026594;28;20511;-68
2022/09/23 05:41:42;;;;;;;3.13;1.30;;;;;;;15.93;61.22;101439.00;5023835;28;20572;-68
2022/09/23 05:44:11;;;;;;;3.55;1.67;;;;;;;15.89;61.13;101453.69;5022012;28;20053;-68
2022/09/23 05:46:39;;;;;;;3.13;1.60;;;;;;;15.85;61.32;101453.63;5018993;28;20050;-68
2022/09/23 05:49:09;;;;;;;5.22;2.05;;;;;;;15.79;61.75;101457.00;5025117;28;20615;-68
2022/09/23 05:51:39;;;;;;;2.53;1.50;;;;;;;15.72;61.90;101459.47;5006462;28;20060;-68
2022/09/23 05:54:08;;;;;;;5.20;1.73;;;;;;;15.70;61.91;101460.31;5007387;28;20423;-69
2022/09/23 05:56:36;;;;;;;2.78;1.10;;;;;;;15.66;62.03;101474.09;5006018;28;20046;-68
2022/09/23 05:59:06;;;;;;;3.50;1.48;;;;;;;15.60;62.24;101466.16;5009617;28;20053;-68
2022/09/23 06:01:37;;;;;;;2.95;1.55;;;;;;;15.56;62.18;101472.16;5006463;28;20524;-68
2022/09/23 06:04:07;;;;;;;1.60;1.20;;;;;;;15.51;62.26;101468.59;5008046;28;20055;-68
2022/09/23 06:06:39;;;;;;;2.83;1.77;;;;;;;15.44;63.39;101464.97;5007357;28;20051;-67
2022/09/23 06:09:10;;;;;;;2.13;1.35;;;;;;;15.35;64.03;101469.13;5000663;28;20057;-67
2022/09/23 06:11:39;;;;;;;3.70;1.58;;;;;;;15.25;64.16;101471.50;5000953;28;20133;-68
2022/09/23 06:14:08;;;;;;;5.65;1.83;;;;;;;15.22;63.86;101471.44;5004148;28;20419;-68
2022/09/23 06:16:37;;;;;;;2.35;1.38;;;;;;;15.11;64.66;101459.91;5003335;28;20050;-68
2022/09/23 06:19:06;;;;;;;3.70;1.67;;;;;;;15.13;64.96;101467.75;5005950;28;20439;-68
2022/09/23 06:21:36;;;;;;;4.85;1.85;;;;;;;15.10;64.56;101473.78;4999397;28;20088;-68
2022/09/23 06:24:07;;;;;;;3.70;1.95;;;;;;;15.08;64.78;101470.28;5007963;28;20054;-69
2022/09/23 06:26:37;;;;;;;4.95;1.52;;;;;;;15.04;64.21;101471.03;5009765;28;20443;-68
2022/09/23 06:29:10;;;;;;;2.20;1.58;;;;;;;15.00;64.24;101475.31;5006119;28;20046;-69
2022/09/23 06:31:40;;;;;;;6.85;2.38;;;;;;;14.96;64.98;101472.59;4998546;28;20052;-69
2022/09/23 06:34:12;;;;;;;3.33;1.67;;;;;;;14.86;64.77;101474.97;5003268;28;20061;-68
2022/09/23 06:36:41;;;;;;;6.13;1.85;;;;;;;14.88;65.44;101477.63;5004873;28;20055;-68
2022/09/23 06:39:11;;;;;;;9.23;2.20;;;;;;;14.83;65.91;101477.50;4999760;28;20971;-68
2022/09/23 06:41:39;;;;;;;3.55;1.60;;;;;;;14.78;66.43;101481.75;5000791;28;20061;-68
2022/09/23 06:44:08;;;;;;;3.40;1.55;;;;;;;14.62;66.62;101470.06;5008831;28;20050;-68
2022/09/23 06:46:37;;;;;;;3.92;1.88;;;;;;;14.70;66.77;101493.69;5006863;28;20049;-68
2022/09/23 06:49:05;;;;;;;4.97;1.90;;;;;;;14.65;67.16;101484.88;5001125;28;20081;-67
2022/09/23 06:51:34;;;;;;;2.47;1.60;;;;;;;14.62;66.74;101490.03;5021360;28;20110;-67
2022/09/23 06:54:02;;;;;;;6.10;1.90;;;;;;;14.58;66.98;101482.97;5020453;28;20049;-67
2022/09/23 06:56:33;;;;;;;1.75;1.38;;;;;;;14.55;67.30;101485.53;5017550;28;20604;-68
2022/09/23 06:59:02;;;;;;;4.80;1.52;;;;;;;14.52;67.14;101480.19;5023808;28;20053;-68
2022/09/23 07:01:30;;;;;;;3.80;1.20;;;;;;;14.48;67.58;101479.25;5019362;28;20057;-68
2022/09/23 07:03:59;;;;;;;8.95;1.90;;;;;;;14.42;68.09;101479.06;5021547;28;20049;-67
2022/09/23 07:06:27;;;;;;;4.22;1.60;;;;;;;14.38;67.66;101480.72;5021818;28;20045;-67
2022/09/23 07:08:56;;;;;;;3.15;1.42;;;;;;;14.31;67.87;101473.59;5020295;28;20535;-68
2022/09/23 07:11:25;;;;;;;2.03;1.40;;;;;;;14.29;68.11;101480.47;5023098;28;20095;-68
2022/09/23 07:13:55;;;;;;;2.97;1.42;;;;;;;14.27;68.34;101478.69;5026897;28;20057;-68
2022/09/23 07:16:23;;;;;;;3.95;1.48;;;;;;;14.22;68.45;101482.06;5026029;28;20045;-68
2022/09/23 07:18:52;;;;;;;3.20;1.45;;;;;;;14.19;68.67;101483.69;5038419;28;20049;-68
2022/09/23 07:21:21;;;;;;;1.60;1.10;;;;;;;14.15;68.59;101487.06;5020944;28;20138;-68
2022/09/23 07:23:50;;;;;;;2.10;1.30;;;;;;;14.11;69.18;101485.19;5015229;28;20546;-67
2022/09/23 07:26:19;;;;;;;3.60;1.98;;;;;;;14.08;68.79;101487.72;5014689;28;20540;-67
2022/09/23 07:28:48;;;;;;;2.28;1.08;;;;;;;14.05;69.10;101493.75;5020830;28;20053;-68
2022/09/23 07:31:19;;;;;;;4.40;1.30;;;;;;;13.99;69.42;101497.03;5022424;28;20435;-68
2022/09/23 07:33:47;;;;;;;3.47;1.63;;;;;;;13.98;69.97;101499.63;5017040;28;20574;-68
2022/09/23 07:36:18;;;;;;;4.03;1.33;;;;;;;13.92;69.09;101507.25;5023863;28;20099;-68
2022/09/23 07:38:48;;;;;;;4.55;1.50;;;;;;;13.87;69.75;101506.25;5016540;28;20074;-67
2022/09/23 07:41:19;;;;;;;2.10;1.10;;;;;;;13.82;69.95;101514.78;5022789;28;20510;-67
2022/09/23 07:43:48;;;;;;;8.65;1.20;;;;;;;13.79;69.56;101513.84;5023117;28;20060;-68
2022/09/23 07:46:19;;;;;;;4.65;1.58;;;;;;;13.73;70.05;101505.84;5026384;28;20052;-68
2022/09/23 07:48:47;;;;;;;3.53;1.50;;;;;;;13.68;70.27;101510.06;5022178;28;20311;-67
2022/09/23 07:51:20;;;;;;;1.75;1.02;;;;;;;13.65;70.51;101507.34;5016117;28;20058;-68
2022/09/23 07:53:48;;;;;;;;;;;;;;;13.62;70.75;101511.59;5019581;28;20060;-67
2022/09/23 07:56:18;;;;;;;3.70;1.45;;;;;;;13.58;70.75;101509.78;5005093;28;20027;-68
2022/09/23 07:58:58;;;;;;;2.47;1.25;;;;;;;13.55;70.86;101509.69;5017181;28;20050;-67
2022/09/23 08:01:30;;;;;;;2.88;1.75;;;;;;;13.55;70.93;101514.88;5020472;28;20058;-67
2022/09/23 08:03:59;;;;;;;3.00;1.43;;;;;;;13.54;70.76;101512.25;5019276;28;20045;-67
2022/09/23 08:06:28;;;;;;;1.77;1.27;;;;;;;13.50;71.31;101511.25;5020880;28;20287;-68
2022/09/23 08:08:59;;;;;;;3.00;1.40;;;;;;;13.46;71.63;101513.72;5020116;28;20582;-68
2022/09/23 08:11:28;;;;;;;2.95;1.40;;;;;;;13.44;71.73;101518.88;5026717;28;20049;-67
2022/09/23 08:13:57;;;;;;;4.72;1.73;;;;;;;13.40;72.36;101520.50;5022881;28;20072;-67
2022/09/23 08:16:28;;;;;;;2.80;1.27;;;;;;;13.38;72.16;101513.50;5014772;28;20075;-68
2022/09/23 08:18:56;;;;;;;2.95;1.27;;;;;;;13.35;72.22;101519.50;5022621;28;20041;-68
2022/09/23 08:21:25;;;;;;;1.08;0.90;;;;;;;13.33;72.31;101515.97;5010707;28;20109;-67
2022/09/23 08:23:53;;;;;;;3.85;1.33;;;;;;;13.31;71.47;101519.31;5026335;28;20053;-67
2022/09/23 08:26:22;;;;;;;3.42;1.20;;;;;;;13.29;72.17;101511.50;5026721;28;20045;-67
2022/09/23 08:28:52;;;;;;;2.70;1.38;;;;;;;13.28;72.28;101517.53;5029515;28;20515;-68
2022/09/23 08:31:21;;;;;;;4.13;1.40;;;;;;;13.25;72.81;101513.94;5027469;28;20096;-68
2022/09/23 08:33:56;;;;;;;3.60;1.15;;;;;;;13.19;73.20;101512.91;5030410;28;20045;-68
2022/09/23 08:36:25;;;;;;;3.35;1.20;;;;;;;13.16;72.98;101505.00;5027719;28;20150;-68
2022/09/23 08:38:54;;;;;;;1.85;1.42;;;;;;;13.14;72.96;101511.88;5031021;28;20502;-68
2022/09/23 08:41:35;;;;;;;1.98;1.50;;;;;;;13.11;72.43;101506.59;5019260;28;20068;-68
2022/09/23 08:44:06;;;;;;;1.77;1.20;;;;;;;13.08;72.77;101500.41;5023076;28;20053;-67
2022/09/23 08:46:38;;;;;;;2.40;0.93;;;;;;;13.06;73.14;101499.50;5027043;28;20057;-68
2022/09/23 08:49:11;;;;;;;;;;;;;;;13.02;73.79;101500.22;5028296;28;20050;-68
2022/09/23 08:51:48;;;;;;;;;;;;;;;13.00;73.72;101513.16;5022092;27;20316;-68
2022/09/23 08:54:18;;;;;;;3.00;1.67;;;;;;;12.95;74.27;101507.81;5018699;28;21163;-68
2022/09/23 08:56:51;;;;;;;2.83;1.38;;;;;;;12.94;74.44;101507.75;5022089;28;20045;-68
2022/09/23 08:59:21;;;;;;;;;;;;;;;12.92;74.07;101509.47;5015914;28;20458;-68
2022/09/23 09:01:53;;;;;;;2.72;1.20;;;;;;;12.88;73.67;101513.66;5027432;28;19973;-68
2022/09/23 09:04:27;;;;;;;7.13;1.75;;;;;;;12.85;74.44;101512.66;5028869;28;20086;-68
2022/09/23 09:07:03;;;;;;;2.60;1.48;;;;;;;12.81;74.49;101511.69;5025845;28;20046;-68
2022/09/23 09:09:44;;;;;;;4.07;1.20;;;;;;;12.76;74.40;101502.88;5023937;28;20053;-68
2022/09/23 09:12:17;;;;;;;8.32;1.80;;;;;;;12.70;73.77;101508.75;5014532;28;20068;-68
2022/09/23 09:14:58;;;;;;;3.67;1.25;;;;;;;12.68;74.50;101510.41;5015156;28;20049;-68
2022/09/23 09:17:37;;;;;;;2.97;1.35;;;;;;;12.61;74.41;101504.97;5030757;28;20056;-68
2022/09/23 09:20:23;;;;;;;2.47;1.48;;;;;;;12.64;74.76;101513.72;5027697;28;20053;-68
2022/09/23 09:22:58;;;;;;;6.03;1.23;;;;;;;12.61;74.85;101516.22;5022981;28;20059;-68
2022/09/23 09:25:38;;;;;;;3.47;1.23;;;;;;;12.58;75.35;101519.59;5028883;28;20103;-68
2022/09/23 09:28:18;;;;;;;1.73;1.05;;;;;;;12.54;75.41;101514.25;5025555;28;20052;-68
2022/09/23 09:30:51;;;;;;;3.03;1.30;;;;;;;12.51;75.79;101511.56;5038365;28;20051;-68
2022/09/23 09:33:32;;;;;;;3.17;1.17;;;;;;;12.47;75.72;101507.09;5023777;28;20396;-68
2022/09/23 09:36:21;;;;;;;4.25;1.60;;;;;;;12.45;76.01;101513.94;5019116;28;20049;-67
2022/09/23 09:38:52;;;;;;;2.47;1.02;;;;;;;12.43;75.65;101513.00;5023846;28;20148;-68
2022/09/23 09:41:23;;;;;;;4.63;1.30;;;;;;;12.40;75.24;101511.19;5023879;28;20041;-68
2022/09/23 09:43:59;;;;;;;2.97;1.20;;;;;;;12.36;75.77;101511.91;5028017;28;20054;-67
2022/09/23 09:46:40;;;;;;;3.03;1.40;;;;;;;12.31;76.10;101514.34;5021115;28;20046;-68
2022/09/23 09:49:22;;;;;;;3.65;1.73;;;;;;;12.28;76.52;101509.06;5019963;28;20137;-68
2022/09/23 09:52:20;;;;;;;4.47;1.35;;;;;;;12.26;76.29;101509.84;5025558;28;20556;-68
2022/09/23 09:54:49;;;;;;;3.00;1.30;;;;;;;12.23;76.26;101510.63;5020926;28;20132;-67
2022/09/23 09:57:31;;;;;;;3.72;1.40;;;;;;;12.22;77.02;101515.75;5021122;28;20067;-67
2022/09/23 10:00:17;;;;;;;1.60;0.90;;;;;;;12.20;77.00;101509.63;5027594;28;20106;-69
2022/09/23 10:02:48;;;;;;;4.05;1.50;;;;;;;12.17;77.66;101513.00;5033682;28;20057;-68
2022/09/23 10:05:27;;;;;;;5.43;1.33;;;;;;;12.13;76.80;101518.91;5028482;28;20045;-68
2022/09/23 10:07:57;;;;;;;3.35;1.45;;;;;;;12.08;77.77;101515.28;5026112;28;20096;-68
2022/09/23 10:10:27;;;;;;;2.67;1.27;;;;;;;12.04;77.04;101508.22;5026877;28;20038;-68
2022/09/23 10:12:56;;;;;;;3.70;1.38;;;;;;;12.02;76.47;101515.91;5024293;28;20515;-67
2022/09/23 10:15:32;;;;;;;4.10;1.60;;;;;;;11.96;76.76;101520.91;5018488;28;20100;-67
2022/09/23 10:18:01;;;;;;;1.60;1.20;;;;;;;11.97;77.21;101521.78;5024804;28;20077;-68
2022/09/23 10:20:37;;;;;;;1.90;1.40;;;;;;;11.94;77.71;101522.56;5025202;28;20053;-68
2022/09/23 10:23:16;;;;;;;2.70;1.58;;;;;;;11.92;78.25;101521.63;5026159;28;20115;-68
2022/09/23 10:25:57;;;;;;;1.92;1.50;;;;;;;11.89;77.32;101522.41;5022420;28;20062;-68
2022/09/23 10:28:39;;;;;;;8.07;1.55;;;;;;;11.87;77.90;101521.44;5025344;28;20049;-69
2022/09/23 10:31:09;;;;;;;1.10;0.90;;;;;;;11.84;78.53;101516.13;5021672;28;20057;-67
2022/09/23 10:33:43;;;;;;;3.47;1.10;;;;;;;11.82;78.51;101522.06;5034344;28;20414;-68
2022/09/23 10:36:12;;;;;;;4.25;1.30;;;;;;;11.79;77.91;101522.84;5024998;28;20542;-68
2022/09/23 10:38:42;;;;;;;2.03;1.33;;;;;;;11.79;78.57;101522.84;5021260;28;20037;-68
2022/09/23 10:47:17;;;;;;;2.83;1.33;;;;;;;11.68;78.24;101516.38;5019725;28;20064;-67
2022/09/23 10:50:00;;;;;;;4.07;1.35;;;;;;;11.60;78.92;101515.22;5028843;28;20041;-67
2022/09/23 10:52:44;;;;;;;2.35;1.27;;;;;;;11.56;78.96;101509.03;5021111;28;20061;-67
2022/09/23 10:55:42;;;;;;;4.13;1.38;;;;;;;11.50;79.32;101511.41;5024969;28;20061;-67
2022/09/23 10:58:28;;;;;;;2.78;1.30;;;;;;;11.46;78.89;101518.16;5012066;28;20038;-67
2022/09/23 11:01:12;;;;;;;4.13;1.25;;;;;;;11.46;78.44;101517.28;5025186;28;20586;-67
2022/09/23 11:04:15;;;;;;;1.45;1.00;;;;;;;11.47;78.56;101509.56;5020910;28;20538;-67
2022/09/23 11:06:59;;;;;;;1.23;1.00;;;;;;;11.47;78.45;101504.38;4971885;28;20038;-67
2022/09/23 11:09:40;;;;;;;3.67;1.05;;;;;;;11.41;78.16;101498.97;5020034;28;20125;-66
2022/09/23 11:12:23;;;;;;;2.17;1.33;;;;;;;11.35;79.35;101497.84;5020803;28;20041;-67
2022/09/23 11:15:15;;;;;;;6.50;1.10;;;;;;;11.31;79.10;101502.03;5012915;28;20510;-67
2022/09/23 11:18:28;;;;;;;4.23;1.23;;;;;;;11.32;78.86;101498.63;5017480;28;20455;-67
2022/09/23 11:21:06;;;;;;;2.78;1.45;;;;;;;11.32;78.17;101498.63;5022895;28;20293;-68
2022/09/23 11:24:02;;;;;;;2.25;1.17;;;;;;;11.30;79.19;101495.97;5023042;28;20053;-69
2022/09/23 11:26:42;;;;;;;2.65;1.40;;;;;;;11.31;78.61;101504.63;5016491;28;20057;-68
2022/09/23 11:29:29;;;;;;;5.63;1.17;;;;;;;11.30;79.28;101505.47;5020728;28;20041;-68
2022/09/23 11:32:10;;;;;;;4.00;1.58;;;;;;;11.27;79.85;101502.72;5024432;28;20166;-67
2022/09/23 11:35:03;;;;;;;2.17;1.48;;;;;;;11.25;79.88;101496.63;5019366;28;20054;-68
2022/09/23 11:37:36;;;;;;;6.50;1.27;;;;;;;11.22;79.72;101497.38;5021627;28;20108;-67
2022/09/23 11:40:12;;;;;;;3.22;1.33;;;;;;;11.21;79.88;101500.78;5018609;28;20053;-67
2022/09/23 11:42:51;;;;;;;2.42;0.90;;;;;;;11.21;79.26;101497.31;5025021;28;20083;-67
2022/09/23 11:45:26;;;;;;;1.77;1.17;;;;;;;11.19;79.73;101497.25;5022028;28;20049;-68
2022/09/23 11:47:59;;;;;;;5.88;1.23;;;;;;;11.18;80.20;101497.19;5019145;28;20045;-68
2022/09/23 11:50:33;;;;;;;1.55;1.27;;;;;;;11.16;80.29;101485.91;5032888;28;20502;-68
2022/09/23 11:53:07;;;;;;;2.00;1.10;;;;;;;11.15;80.67;101485.00;5028915;28;20434;-68
2022/09/23 11:55:43;;;;;;;1.73;1.33;;;;;;;11.13;80.49;101486.66;5030926;28;20137;-68
2022/09/23 11:58:18;;;;;;;5.07;1.48;;;;;;;11.10;81.14;101487.41;5025952;28;20056;-68
2022/09/23 12:00:55;;;;;;;2.55;1.08;;;;;;;11.09;81.13;101492.56;5017792;28;20091;-67